Norfolk, Virginia
Traffic Map
Current Weather Conditions
Norfolk, Virginia
Clear
Clear
59°
Feels Like: 59°
Wind Chill: 59° Ceiling: Unl
Heat Index: 59° Visibility: 10mi
Dew Point: 52° Wind: 7mph
Humidity: 78% Direction: 200° (SSW)
Pressure: 30.24in Gusts: 0mph
Raw Report DataKORF 060851Z 20006KT 10SM CLR 15/11 A3024 RMK AO2 SLP238 T01500111 58002
Traffic Incident Summary
Active as of:
Severity:
Category:
InformationThere was an issue retrieving the traffic information for this location. Please try a different location or try again shortly.
Advertisements
Track Severe Weather on mobile